Latest Weather Observations for Cape Bruny AWS

IDT60801

Issued at 10:31 pm EDT Monday 10 December 2018 (issued every 10 minutes, with the page automatically refreshed every 10 minutes)

About weather observations | Map of weather stations | Latest weather observations for TAS | Other Formats
Station Details ID: 094198 Name: CAPE BRUNY (CAPE BRUNY) Lat: -43.49 Lon: 147.14 Height: 59.7 m
Data from the previous 72 hours. | See also: Recent months at Cape Bruny AWS
Date/Time
EDT
Temp
°C
App
Temp
°C
Dew
Point
°C
Rel
Hum
%
Delta-T
°C
Wind Press
QNH
hPa
Press
MSL
hPa
Rain since
9am
mm
Dir  Spd
km/h
Gust
km/h
Spd
kts
Gust
kts
10/10:30pm 12.0 6.5 7.5 74 2.2 WSW 26 33 14 18 1019.8 1019.7 0.0
10/10:00pm 12.4 6.3 8.3 76 2.0 WSW 30 39 16 21 1019.8 1019.7 0.0
10/09:30pm 12.3 5.6 8.0 75 2.1 WSW 33 43 18 23 1019.5 1019.4 0.0
10/09:00pm 12.4 6.2 7.9 74 2.2 WSW 30 35 16 19 1019.0 1019.0 0.0
10/08:30pm 12.6 6.3 7.5 71 2.5 WSW 30 39 16 21 1018.7 1018.7 0.0
10/08:00pm 12.9 6.2 8.0 72 2.4 WSW 33 44 18 24 1018.5 1018.5 0.0
10/07:51pm 12.9 6.2 8.0 72 2.4 WSW 33 52 18 28 1018.3 1018.3 0.0
10/07:30pm 13.1 5.4 7.3 68 2.8 WSW 37 48 20 26 1017.9 1017.9 0.0
10/07:00pm 13.9 6.3 7.4 65 3.2 WSW 37 46 20 25 1017.5 1017.5 0.0
10/06:30pm 14.5 6.1 7.5 63 3.5 WSW 41 54 22 29 1017.2 1017.2 0.0
10/06:00pm 14.9 6.7 8.2 64 3.4 WSW 41 54 22 29 1016.8 1016.8 0.0
10/05:30pm 15.1 6.5 8.8 66 3.2 WSW 44 57 24 31 1016.7 1016.7 0.0
10/05:13pm 15.6 7.4 8.4 62 3.7 WSW 41 59 22 32 1016.4 1016.4 0.0
10/05:00pm 16.0 8.4 9.2 64 3.5 WSW 39 54 21 29 1016.3 1016.3 0.0
10/04:30pm 16.4 8.9 9.3 63 3.7 WSW 39 54 21 29 1016.2 1016.2 0.0
10/04:00pm 17.0 9.4 8.9 59 4.2 WSW 39 48 21 26 1016.0 1016.0 0.0
10/03:30pm 16.4 8.0 8.9 61 3.9 WSW 43 56 23 30 1015.7 1015.7 0.0
10/03:16pm 16.1 7.1 8.8 62 3.7 WSW 46 65 25 35 1015.4 1015.4 0.0
10/03:00pm 16.0 8.8 10.5 70 2.9 WSW 39 48 21 26 1015.7 1015.7 0.0
10/02:30pm 13.2 5.6 10.4 83 1.5 WSW 41 57 22 31 1015.7 1015.7 0.0
10/02:14pm 12.9 6.3 10.1 83 1.4 WSW 35 56 19 30 1015.6 1015.6 0.0
10/02:00pm 14.1 7.3 10.7 80 1.8 WSW 37 52 20 28 1015.7 1015.7 0.0
10/01:55pm 15.0 10.2 10.2 73 2.5 WSW 26 44 14 24 1015.6 1015.6 0.0
10/01:30pm 17.5 15.4 8.1 54 4.8 ESE 9 15 5 8 1015.0 1015.0 0.0
10/01:00pm 17.1 14.9 9.5 61 4.0 ESE 11 13 6 7 1015.1 1015.1 0.0
10/12:30pm 16.8 14.0 8.5 58 4.3 ESE 13 19 7 10 1015.0 1015.0 0.0
10/12:00pm 17.7 14.8 9.6 59 4.3 ESE 15 19 8 10 1015.1 1015.1 0.0
10/11:30am 17.6 14.2 9.2 58 4.4 ESE 17 20 9 11 1015.1 1015.1 0.0
10/11:00am 17.7 14.4 8.0 53 4.9 SE 15 19 8 10 1015.0 1015.0 0.0
10/10:30am 16.7 13.4 6.5 51 5.0 S 13 17 7 9 1015.0 1015.0 0.0
10/10:00am 16.7 14.1 6.2 50 5.1 SSW 9 17 5 9 1015.1 1015.1 0.0
10/09:30am 16.6 13.9 7.3 54 4.6 W 11 15 6 8 1015.0 1015.0 0.0
10/09:00am 15.9 12.7 6.9 55 4.4 WNW 13 19 7 10 1014.8 1014.8 0.0
10/08:30am 15.1 11.4 7.9 62 3.6 WNW 17 20 9 11 1015.0 1015.0 0.0
10/08:00am 14.6 11.3 7.9 64 3.3 WNW 15 19 8 10 1014.9 1014.9 0.0
10/07:30am 13.6 9.3 7.2 65 3.1 WNW 19 20 10 11 1014.7 1014.7 0.0
10/07:00am 13.0 8.7 7.7 70 2.6 W 20 24 11 13 1014.6 1014.6 0.0
10/06:30am 12.3 8.0 7.0 70 2.6 WNW 19 26 10 14 1014.6 1014.6 0.0
10/06:00am 11.8 7.3 7.1 73 2.3 WNW 20 24 11 13 1014.6 1014.6 0.0
10/05:30am 12.2 5.4 7.7 74 2.2 W 33 43 18 23 1014.4 1014.4 0.0
10/05:00am 12.5 5.9 8.6 77 1.9 W 33 41 18 22 1014.0 1014.0 0.0
10/04:30am 12.2 7.8 9.0 81 1.6 WSW 22 28 12 15 1013.9 1013.9 0.0
10/04:00am 12.7 8.3 9.0 78 1.9 WSW 22 30 12 16 1013.9 1013.9 0.0
10/03:30am 13.0 8.4 9.6 80 1.7 SW 24 33 13 18 1014.1 1014.1 0.0
10/03:00am 13.4 9.1 10.6 83 1.5 SW 24 30 13 16 1014.0 1014.0 0.0
10/02:30am 13.9 12.3 11.4 85 1.3 SW 11 13 6 7 1014.2 1014.2 0.0
10/02:00am 13.7 11.5 10.9 83 1.5 N 13 19 7 10 1014.1 1014.1 0.0
10/01:30am 13.5 10.9 10.7 83 1.5 NNW 15 22 8 12 1014.2 1014.2 0.0
10/01:00am 13.2 9.6 10.6 84 1.4 N 20 28 11 15 1014.3 1014.3 0.0
10/12:30am 13.3 9.9 10.5 83 1.5 NNE 19 26 10 14 1014.7 1014.7 0.0
10/12:00am 13.4 10.0 10.6 83 1.5 NNE 19 26 10 14 1015.1 1015.1 0.0
 
Date/Time
EDT
Temp
°C
App
Temp
°C
Dew
Point
°C
Rel
Hum
%
Delta-T
°C
Wind Press
QNH
hPa
Press
MSL
hPa
Rain since
9am
mm
Dir  Spd
km/h
Gust
km/h
Spd
kts
Gust
kts
09/11:30pm 13.4 9.8 10.0 80 1.8 NE 19 24 10 13 1015.5 1015.5 0.0
09/11:00pm 13.5 10.7 10.1 80 1.8 NE 15 24 8 13 1016.0 1016.0 0.0
09/10:30pm 13.7 10.9 10.1 79 1.9 NNE 15 22 8 12 1016.5 1016.5 0.0
09/10:00pm 13.5 11.4 9.7 78 2.0 NNE 11 13 6 7 1016.6 1016.6 0.0
09/09:30pm 14.4 12.4 10.0 75 2.3 NNE 11 15 6 8 1016.7 1016.7 0.0
09/09:00pm 15.0 13.2 10.8 76 2.2 NNE 11 15 6 8 1016.8 1016.8 0.0
09/08:30pm 14.9 13.1 10.7 76 2.2 ENE 11 15 6 8 1016.5 1016.5 0.0
09/08:00pm 15.7 13.2 10.9 73 2.6 ENE 15 19 8 10 1016.2 1016.2 0.0
09/07:30pm 15.7 12.8 10.9 73 2.6 ENE 17 20 9 11 1016.4 1016.4 0.0
09/07:00pm 16.2 12.9 10.9 71 2.8 ENE 19 24 10 13 1016.2 1016.2 0.0
09/06:30pm 17.1 13.7 11.2 68 3.2 ENE 20 26 11 14 1015.9 1015.9 0.0
09/06:00pm 16.7 12.5 11.0 69 3.1 ENE 24 30 13 16 1016.2 1016.2 0.0
09/05:30pm 16.5 12.3 11.0 70 3.0 ENE 24 30 13 16 1016.5 1016.5 0.0
09/05:00pm 17.0 12.3 10.6 66 3.4 ENE 26 35 14 19 1016.9 1016.9 0.0
09/04:30pm 17.9 13.1 10.3 61 4.1 ENE 26 33 14 18 1017.2 1017.2 0.0
09/04:00pm 18.5 13.9 9.6 56 4.7 ENE 24 32 13 17 1017.7 1017.7 0.0
09/03:30pm 18.3 14.0 9.4 56 4.7 ENE 22 30 12 16 1018.0 1018.0 0.0
09/03:00pm 17.5 12.9 9.7 60 4.1 ESE 24 32 13 17 1018.2 1018.2 0.0
09/02:30pm 16.9 10.9 8.8 59 4.2 ESE 30 35 16 19 1018.5 1018.5 0.0
09/02:00pm 18.2 12.8 9.5 57 4.6 ESE 28 35 15 19 1018.7 1018.7 0.0
09/01:30pm 17.8 12.3 9.2 57 4.5 ESE 28 35 15 19 1019.3 1019.2 0.0
09/01:00pm 17.7 11.8 9.1 57 4.5 ESE 30 35 16 19 1019.8 1019.7 0.0
09/12:30pm 17.6 12.6 7.9 53 4.9 ESE 24 28 13 15 1020.2 1020.1 0.0
09/12:00pm 18.0 13.7 8.0 52 5.1 ESE 20 24 11 13 1020.6 1020.5 0.0
09/11:30am 17.6 13.4 7.4 51 5.1 ESE 19 22 10 12 1020.9 1020.8 0.0
09/11:00am 16.6 14.2 8.6 59 4.1 ESE 11 17 6 9 1021.1 1021.0 0.0
09/10:30am 16.1 14.0 8.1 59 4.0 S 9 15 5 8 1021.2 1021.1 0.0
09/10:00am 14.8 13.1 8.5 66 3.2 W 7 9 4 5 1021.2 1021.1 0.0
09/09:30am 15.0 13.4 8.9 67 3.1 WNW 7 9 4 5 1021.2 1021.1 0.0
09/09:00am 13.6 11.8 9.5 76 2.1 NW 9 11 5 6 1021.3 1021.2 0.0
09/08:30am 12.7 10.2 8.4 75 2.1 WNW 11 13 6 7 1021.1 1021.0 0.0
09/08:00am 14.2 12.1 9.8 75 2.3 NW 11 13 6 7 1021.0 1020.9 0.0
09/07:30am 13.6 11.0 9.5 76 2.1 WNW 13 19 7 10 1020.8 1020.7 0.0
09/07:00am 12.5 10.0 9.7 83 1.4 NW 13 15 7 8 1020.7 1020.6 0.0
09/06:30am 11.9 9.2 9.1 83 1.4 WNW 13 17 7 9 1020.6 1020.5 0.0
09/06:00am 11.1 7.7 7.8 80 1.6 W 15 19 8 10 1020.4 1020.3 0.0
09/05:30am 11.0 7.7 7.9 81 1.5 W 15 19 8 10 1020.3 1020.2 0.0
09/05:00am 11.0 7.2 7.5 79 1.7 WSW 17 20 9 11 1020.1 1020.0 0.0
09/04:30am 11.4 7.3 7.9 79 1.7 WSW 19 24 10 13 1019.9 1019.8 0.0
09/04:00am 12.0 7.2 7.5 74 2.2 WSW 22 28 12 15 1019.7 1019.6 0.0
09/03:30am 12.0 7.4 8.1 77 1.9 WSW 22 33 12 18 1019.7 1019.6 0.0
09/03:00am 12.0 7.0 8.1 77 1.9 WSW 24 32 13 17 1019.8 1019.7 0.0
09/02:30am 12.0 7.0 8.1 77 1.9 WSW 24 33 13 18 1019.9 1019.8 0.0
09/02:00am 12.0 7.4 8.1 77 1.9 WSW 22 32 12 17 1020.0 1019.9 0.0
09/01:30am 12.1 7.7 8.9 81 1.6 SW 22 32 12 17 1020.0 1019.9 0.0
09/01:00am 12.1 8.1 9.1 82 1.5 WSW 20 32 11 17 1020.0 1019.9 0.0
09/12:30am 12.1 7.7 8.9 81 1.6 SW 22 32 12 17 1020.0 1019.9 0.0
09/12:00am 12.2 8.2 9.2 82 1.5 WSW 20 30 11 16 1020.0 1019.9 0.0
 
Date/Time
EDT
Temp
°C
App
Temp
°C
Dew
Point
°C
Rel
Hum
%
Delta-T
°C
Wind Press
QNH
hPa
Press
MSL
hPa
Rain since
9am
mm
Dir  Spd
km/h
Gust
km/h
Spd
kts
Gust
kts
08/11:30pm 12.1 8.7 9.1 82 1.5 WSW 17 26 9 14 1020.0 1019.9 0.0
08/11:00pm 12.2 8.2 9.0 81 1.6 WSW 20 30 11 16 1020.1 1020.0 0.0
08/10:30pm 12.4 8.5 9.4 82 1.5 SW 20 32 11 17 1019.9 1019.8 0.0
08/10:00pm 12.4 8.1 9.2 81 1.6 SW 22 33 12 18 1019.7 1019.6 0.0
08/09:30pm 12.5 7.9 9.5 82 1.5 SW 24 41 13 22 1019.5 1019.4 0.0
08/09:00pm 12.6 8.3 9.4 81 1.6 SW 22 32 12 17 1019.0 1019.0 0.0
08/08:30pm 12.8 7.3 9.3 79 1.8 SW 28 39 15 21 1018.6 1018.6 0.0
08/08:00pm 13.4 7.6 9.6 78 1.9 SW 30 39 16 21 1018.3 1018.3 0.0
08/07:30pm 14.0 9.2 10.2 78 2.0 SW 26 37 14 20 1017.6 1017.6 0.0
08/07:00pm 14.6 10.6 10.6 77 2.1 SW 22 32 12 17 1017.1 1017.1 0.0
08/06:40pm 15.1 10.1 11.1 77 2.1 WSW 28 46 15 25 1016.7 1016.7 0.0
08/06:30pm 15.1 9.3 10.9 76 2.2 WSW 32 44 17 24 1016.5 1016.5 0.0
08/06:00pm 15.6 9.7 11.2 75 2.4 WSW 33 46 18 25 1016.3 1016.3 0.0
08/05:34pm 16.0 11.1 11.2 73 2.6 WSW 28 50 15 27 1016.2 1016.2 0.0
08/05:30pm 15.9 11.0 11.3 74 2.5 WSW 28 43 15 23 1016.2 1016.2 0.0
08/05:17pm 15.9 10.4 11.7 76 2.3 WSW 32 50 17 27 1016.1 1016.1 0.0
08/05:00pm 15.8 8.8 11.4 75 2.4 WSW 39 54 21 29 1015.9 1015.9 0.0
08/04:30pm 16.3 10.6 11.2 72 2.7 WSW 32 50 17 27 1015.7 1015.7 0.0
08/04:24pm 16.6 11.5 12.0 74 2.5 WSW 30 50 16 27 1015.7 1015.7 0.0
08/04:00pm 16.4 10.7 11.8 74 2.5 SW 33 44 18 24 1015.7 1015.7 0.0
08/03:33pm 16.5 10.3 11.4 72 2.8 WSW 35 54 19 29 1015.2 1015.2 0.0
08/03:30pm 16.5 10.4 11.6 73 2.7 WSW 35 50 19 27 1015.2 1015.2 0.0
08/03:00pm 16.5 10.9 11.4 72 2.8 SW 32 44 17 24 1015.4 1015.4 0.0
08/02:30pm 16.9 11.4 11.8 72 2.8 WSW 32 44 17 24 1015.4 1015.4 0.0
08/02:00pm 16.7 12.2 12.7 77 2.2 SW 28 41 15 22 1015.3 1015.3 0.0
08/01:30pm 15.7 9.8 12.5 81 1.8 SW 35 46 19 25 1015.1 1015.1 0.0
08/01:00pm 15.2 9.3 12.5 84 1.5 SW 35 46 19 25 1014.9 1014.9 0.0
08/12:30pm 15.7 10.5 12.8 83 1.6 SW 32 43 17 23 1014.8 1014.8 0.0
08/12:00pm 15.5 12.0 13.3 87 1.2 SW 24 35 13 19 1014.6 1014.6 0.0
08/11:30am 14.5 10.5 12.9 90 0.9 SW 26 35 14 19 1014.8 1014.8 0.0
08/11:00am 15.1 11.2 13.3 89 1.0 SW 26 35 14 19 1014.4 1014.4 0.0
08/10:30am 14.8 11.6 13.2 90 0.9 SW 22 30 12 16 1014.3 1014.3 0.0
08/10:00am 15.4 12.8 13.8 90 0.9 SW 20 28 11 15 1014.0 1014.0 0.0
08/09:30am 15.3 13.3 13.8 91 0.8 SW 17 28 9 15 1014.0 1014.0 0.0
08/09:00am 15.1 14.2 13.6 91 0.8 SSW 11 17 6 9 1013.9 1013.9 1.0
08/08:30am 15.5 15.1 14.2 92 0.7 SW 9 17 5 9 1013.6 1013.6 1.0
08/08:00am 15.0 13.7 13.7 92 0.7 S 13 17 7 9 1013.2 1013.2 1.0
08/07:30am 14.9 13.6 13.6 92 0.7 SSE 13 17 7 9 1012.9 1012.9 1.0
08/07:00am 15.0 14.5 13.7 92 0.7 SE 9 13 5 7 1012.4 1012.4 1.0
08/06:30am 15.0 14.2 13.9 93 0.6 ESE 11 13 6 7 1012.4 1012.4 1.0
08/06:00am 14.9 14.0 13.6 92 0.7 E 11 13 6 7 1012.1 1012.1 1.0
08/05:30am 14.8 14.2 13.5 92 0.7 E 9 11 5 6 1011.7 1011.7 1.0
08/05:00am 15.0 14.7 13.4 90 0.9 SE 7 11 4 6 1011.7 1011.7 1.0
08/04:30am 15.1 14.9 13.5 90 0.9 ESE 7 13 4 7 1011.6 1011.6 1.0
08/04:00am 15.1 14.4 13.3 89 1.0 SSE 9 15 5 8 1011.3 1011.3 1.0
08/03:30am 15.2 15.1 13.2 88 1.1 SSW 6 11 3 6 1011.4 1011.4 1.0
08/03:00am 15.6 16.3 13.3 86 1.3 SW 2 7 1 4 1011.3 1011.3 1.0
08/02:30am 16.1 15.6 13.9 87 1.2 SSW 9 15 5 8 1010.4 1010.4 1.0
08/02:00am 16.0 13.7 14.0 88 1.1 SW 19 35 10 19 1010.0 1010.0 1.0
08/01:30am 16.7 14.2 14.2 85 1.4 N 20 26 11 14 1009.7 1009.7 1.0
08/01:00am 16.3 14.7 14.0 86 1.3 N 15 20 8 11 1010.0 1010.0 1.0
08/12:30am 16.3 14.0 14.0 86 1.3 N 19 20 10 11 1010.4 1010.4 1.0
08/12:00am 16.4 13.9 14.2 87 1.3 N 20 22 11 12 1010.5 1010.5 1.0
 
Date/Time
EDT
Temp
°C
App
Temp
°C
Dew
Point
°C
Rel
Hum
%
Delta-T
°C
Wind Press
QNH
hPa
Press
MSL
hPa
Rain since
9am
mm
Dir  Spd
km/h
Gust
km/h
Spd
kts
Gust
kts
07/11:30pm 15.9 13.5 13.7 87 1.2 N 19 20 10 11 1010.8 1010.8 1.0
07/11:00pm 16.6 17.6 13.3 81 1.9 CALM 0 0 0 0 1010.5 1010.5 1.0

Other Formats:

Comma delimited format used in spreadsheet applications
http://www.bom.gov.au/fwo/IDT60801/IDT60801.95967.axf

JavaScript Object Notation format (JSON) in row-major order
http://www.bom.gov.au/fwo/IDT60801/IDT60801.95967.json